Time;durP1;ratioP1;P1;durP2;ratioP2;P2;SDS_P1;SDS_P2;PMS_P1;PMS_P2;Temp;Humidity;BMP_temperature;BMP_pressure;BME280_temperature;BME280_humidity;BME280_pressure;Samples;Min_cycle;Max_cycle;Signal;HPM_P1;HPM_P2
2021/08/26 00:00:34;;;;;;;;;11.75;11.00;;;;;24.52;42.35;101519.84;5076314;27;51005;-59
2021/08/26 00:05:46;;;;;;;;;14.25;10.50;;;;;24.49;42.49;101520.31;5079075;27;51165;-59
2021/08/26 00:08:13;;;;;;;;;10.00;10.00;;;;;24.46;42.46;101518.00;5087823;27;51859;-59
2021/08/26 00:10:39;;;;;;;;;10.75;9.75;;;;;24.45;42.60;101530.16;5094382;27;51262;-59
2021/08/26 00:13:06;;;;;;;;;11.25;9.50;;;;;24.43;42.76;101526.78;5089916;27;51140;-59
2021/08/26 00:15:34;;;;;;;;;10.75;10.00;;;;;24.41;42.59;101527.00;5084159;27;51350;-59
2021/08/26 00:17:59;;;;;;;;;10.50;9.75;;;;;24.39;42.75;101523.63;5094267;27;51801;-59
2021/08/26 00:20:26;;;;;;;;;14.00;12.50;;;;;24.37;43.01;101524.91;5097686;27;50930;-59
2021/08/26 00:22:51;;;;;;;;;9.25;8.00;;;;;24.36;42.80;101531.53;5084158;27;51101;-59
2021/08/26 00:25:17;;;;;;;;;10.00;8.75;;;;;24.34;42.85;101529.00;5079742;27;51127;-59
2021/08/26 00:27:43;;;;;;;;;10.50;9.00;;;;;24.33;42.99;101534.78;5087436;27;52125;-59
2021/08/26 00:30:08;;;;;;;;;8.25;8.25;;;;;24.32;42.93;101533.09;5078516;27;51005;-59
2021/08/26 00:32:34;;;;;;;;;9.25;9.25;;;;;24.31;42.88;101536.94;5089758;27;50996;-60
2021/08/26 00:34:59;;;;;;;;;7.00;7.00;;;;;24.30;43.07;101538.00;5089982;27;51303;-59
2021/08/26 00:37:24;;;;;;;;;9.75;9.25;;;;;24.29;43.36;101533.53;5093352;27;55234;-59
2021/08/26 00:39:50;;;;;;;;;12.00;12.00;;;;;24.28;43.07;101540.13;5078623;27;51166;-59
2021/08/26 00:42:15;;;;;;;;;11.00;10.00;;;;;24.27;43.06;101538.44;5086570;27;51097;-59
2021/08/26 00:44:41;;;;;;;;;7.25;6.50;;;;;24.27;42.86;101539.28;5079807;27;51005;-59
2021/08/26 00:47:09;;;;;;;;;8.50;7.75;;;;;24.25;43.35;101533.13;5089868;27;51022;-59
2021/08/26 00:49:34;;;;;;;;;10.75;10.75;;;;;24.26;43.40;101533.97;5096299;27;51429;-59
2021/08/26 00:52:00;;;;;;;;;8.75;7.75;;;;;24.23;43.28;101526.97;5098222;27;51561;-59
2021/08/26 00:54:26;;;;;;;;;7.00;7.00;;;;;24.22;43.25;101518.91;5081264;27;51071;-60
2021/08/26 00:56:52;;;;;;;;;8.00;7.00;;;;;24.22;43.15;101521.69;5078286;27;51599;-60
2021/08/26 00:59:17;;;;;;;;;6.25;6.25;;;;;24.21;43.01;101536.59;5091927;27;51617;-60
2021/08/26 01:02:03;;;;;;;;;8.00;8.00;;;;;24.19;43.25;101529.38;5096893;27;51385;-59
2021/08/26 01:05:11;;;;;;;;;8.50;7.50;;;;;24.19;42.97;101521.06;5085682;27;51266;-59
2021/08/26 01:07:43;;;;;;;;;5.50;4.50;;;;;24.18;43.13;101522.16;5087857;27;52709;-59
2021/08/26 01:10:13;;;;;;;;;9.50;9.50;;;;;24.17;43.11;101516.81;5088137;27;51055;-59
2021/08/26 01:12:39;;;;;;;;;7.25;7.25;;;;;24.16;43.11;101521.50;5081135;27;51186;-60
2021/08/26 01:15:06;;;;;;;;;6.50;6.00;;;;;24.16;43.19;101524.28;5078240;27;51025;-59
2021/08/26 01:17:32;;;;;;;;;6.75;5.75;;;;;24.14;43.12;101511.75;5095499;27;51117;-60
2021/08/26 01:19:58;;;;;;;;;7.00;5.75;;;;;24.13;43.13;101516.44;5091969;27;51170;-60
2021/08/26 01:22:25;;;;;;;;;7.00;6.25;;;;;24.12;42.97;101517.53;5095607;27;51318;-60
2021/08/26 01:25:30;;;;;;;;;7.50;6.75;;;;;24.11;43.36;101521.38;5078199;27;51138;-60
2021/08/26 01:28:01;;;;;;;;;6.00;5.75;;;;;24.09;43.24;101520.75;5080816;27;51700;-60
2021/08/26 01:30:30;;;;;;;;;4.50;4.50;;;;;24.08;43.39;101516.31;5080190;27;51083;-59
2021/08/26 01:33:00;;;;;;;;;7.50;6.25;;;;;24.07;43.32;101514.63;5091531;27;51159;-60
2021/08/26 01:35:30;;;;;;;;;4.00;4.00;;;;;24.06;43.38;101512.91;5095865;27;51336;-60
2021/08/26 01:37:56;;;;;;;;;4.00;4.00;;;;;24.05;43.14;101516.75;5086583;27;51722;-59
2021/08/26 01:40:38;;;;;;;;;7.00;6.25;;;;;24.03;43.20;101507.84;5085104;27;51111;-58
2021/08/26 01:43:09;;;;;;;;;4.00;4.00;;;;;24.04;42.99;101508.69;5086851;27;51222;-59
2021/08/26 01:45:34;;;;;;;;;4.00;3.75;;;;;24.02;42.97;101506.16;5082280;27;51197;-60
2021/08/26 01:47:59;;;;;;;;;5.50;4.50;;;;;24.02;43.21;101508.06;5080642;27;51980;-60
2021/08/26 01:50:25;;;;;;;;;5.00;5.00;;;;;24.00;43.40;101513.84;5096290;27;51156;-59
2021/08/26 01:52:50;;;;;;;;;4.50;4.50;;;;;24.00;43.59;101507.47;5092220;27;51156;-59
2021/08/26 01:55:15;;;;;;;;;4.00;3.00;;;;;23.99;43.14;101506.63;5077746;27;51301;-59
2021/08/26 01:57:40;;;;;;;;;4.00;4.00;;;;;23.99;42.97;101505.78;5077420;27;51150;-59
2021/08/26 02:00:08;;;;;;;;;7.50;5.00;;;;;23.97;43.21;101500.47;5087379;27;51141;-59
2021/08/26 02:02:33;;;;;;;;;5.75;3.25;;;;;23.96;43.41;101504.28;5089790;27;51253;-59
2021/08/26 02:04:58;;;;;;;;;3.25;3.25;;;;;23.95;43.31;101502.59;5084771;27;51333;-59
2021/08/26 02:07:24;;;;;;;;;5.75;4.75;;;;;23.94;43.42;101503.69;5095048;27;52976;-59
2021/08/26 02:09:49;;;;;;;;;3.00;3.00;;;;;23.94;43.15;101500.91;5096694;27;51064;-59
2021/08/26 02:12:15;;;;;;;;;4.50;4.50;;;;;23.93;42.95;101496.44;5094850;27;51109;-59
2021/08/26 02:14:40;;;;;;;;;4.25;3.75;;;;;23.92;43.56;101496.69;5087701;27;51259;-59
2021/08/26 02:17:06;;;;;;;;;3.75;3.50;;;;;23.91;43.22;101493.06;5095227;27;51812;-58
2021/08/26 02:19:32;;;;;;;;;3.75;3.75;;;;;23.90;43.32;101492.22;5074410;28;51087;-58
2021/08/26 02:21:58;;;;;;;;;4.75;4.75;;;;;23.90;43.56;101502.44;5094318;27;51199;-59
2021/08/26 02:24:23;;;;;;;;;4.50;4.25;;;;;23.89;43.13;101496.06;5087639;27;51402;-59
2021/08/26 02:26:48;;;;;;;;;4.50;4.50;;;;;23.88;43.19;101499.91;5089639;27;51127;-60
2021/08/26 02:29:14;;;;;;;;;4.00;4.00;;;;;23.88;43.41;101494.38;5076410;27;51092;-59
2021/08/26 02:31:39;;;;;;;;;7.25;4.50;;;;;23.87;43.19;101497.38;5089126;27;51434;-59
2021/08/26 02:34:04;;;;;;;;;3.75;3.00;;;;;23.86;43.63;101493.78;5084552;27;51257;-58
2021/08/26 02:36:30;;;;;;;;;5.75;5.75;;;;;23.85;43.51;101497.59;5085862;27;51853;-59
2021/08/26 02:38:55;;;;;;;;;5.00;3.00;;;;;23.85;43.17;101497.59;5096477;27;51133;-58
2021/08/26 02:41:21;;;;;;;;;3.00;3.00;;;;;23.84;43.52;101495.91;5077972;27;51692;-58
2021/08/26 02:43:46;;;;;;;;;8.50;5.00;;;;;23.83;43.37;101496.97;5077687;27;51119;-59
2021/08/26 02:46:12;;;;;;;;;5.00;5.00;;;;;23.81;43.24;101492.75;5078737;27;51912;-59
2021/08/26 02:48:37;;;;;;;;;3.75;3.75;;;;;23.81;43.43;101493.59;5096159;27;51072;-59
2021/08/26 02:51:02;;;;;;;;;5.50;5.50;;;;;23.81;43.50;101499.13;5078561;27;51167;-58
2021/08/26 02:53:28;;;;;;;;;6.00;4.75;;;;;23.80;43.24;101485.53;5087625;27;51317;-59
2021/08/26 02:55:53;;;;;;;;;2.50;2.25;;;;;23.79;43.38;101483.84;5091203;27;51851;-58
2021/08/26 02:58:18;;;;;;;;;5.75;5.75;;;;;23.77;43.79;101489.63;5078147;27;51105;-58
2021/08/26 03:00:44;;;;;;;;;4.25;4.25;;;;;23.76;43.59;101493.47;5090618;27;51361;-58
2021/08/26 03:03:09;;;;;;;;;6.75;6.00;;;;;23.75;43.49;101493.66;5078233;27;51257;-59
2021/08/26 03:05:35;;;;;;;;;4.00;4.00;;;;;23.75;43.27;101493.66;5082134;27;51095;-58
2021/08/26 03:08:00;;;;;;;;;4.50;4.50;;;;;23.74;43.41;101487.28;5094714;27;51077;-58
2021/08/26 03:10:27;;;;;;;;;3.75;3.75;;;;;23.73;43.28;101496.66;5095239;27;50898;-58
2021/08/26 03:12:54;;;;;;;;;4.50;4.00;;;;;23.71;43.51;101481.38;5093028;27;51123;-59
2021/08/26 03:15:19;;;;;;;;;4.00;4.00;;;;;23.70;43.73;101486.06;5094695;27;51896;-58
2021/08/26 03:17:45;;;;;;;;;4.50;4.50;;;;;23.69;43.33;101494.59;5093803;27;51027;-58
2021/08/26 03:20:11;;;;;;;;;5.25;3.00;;;;;23.67;43.17;101486.53;5095914;27;51219;-59
2021/08/26 03:22:36;;;;;;;;;1.50;1.50;;;;;23.67;43.58;101480.16;5082265;27;51223;-59
2021/08/26 03:25:03;;;;;;;;;3.00;2.25;;;;;23.67;43.51;101482.91;5094166;27;51889;-59
2021/08/26 03:27:28;;;;;;;;;3.00;3.00;;;;;23.65;43.13;101477.59;5083348;27;50972;-59
2021/08/26 03:29:54;;;;;;;;;2.00;2.00;;;;;23.65;43.60;101473.97;5075721;27;51108;-59
2021/08/26 03:32:19;;;;;;;;;3.25;3.25;;;;;23.64;43.51;101472.28;5076051;27;51306;-59
2021/08/26 03:34:44;;;;;;;;;3.25;2.75;;;;;23.62;43.80;101469.75;5086346;27;51029;-59
2021/08/26 03:37:10;;;;;;;;;2.00;1.00;;;;;23.61;43.15;101468.91;5096155;27;51269;-59
2021/08/26 03:39:35;;;;;;;;;1.00;1.00;;;;;23.60;43.20;101475.53;5094124;27;50982;-59
2021/08/26 03:42:01;;;;;;;;;1.75;1.75;;;;;23.60;43.54;101481.06;5076084;27;51081;-59
2021/08/26 03:44:26;;;;;;;;;2.25;2.25;;;;;23.59;43.73;101484.91;5081438;27;50987;-59
2021/08/26 03:46:51;;;;;;;;;2.25;1.25;;;;;23.58;43.17;101466.63;5085361;27;51150;-59
2021/08/26 03:49:17;;;;;;;;;2.25;2.00;;;;;23.56;43.27;101479.78;5071650;27;51235;-59
2021/08/26 03:51:42;;;;;;;;;2.00;2.00;;;;;23.55;43.35;101475.34;5095813;27;51072;-59
2021/08/26 03:54:07;;;;;;;;;2.50;2.50;;;;;23.54;43.50;101475.53;5077804;27;51804;-59
2021/08/26 03:56:33;;;;;;;;;1.75;1.75;;;;;23.53;43.54;101477.47;5080601;27;51172;-59
2021/08/26 03:58:58;;;;;;;;;1.00;1.00;;;;;23.51;43.34;101476.84;5087657;27;52236;-59
2021/08/26 04:01:23;;;;;;;;;2.25;2.25;;;;;23.51;43.57;101476.84;5091062;27;51055;-59
2021/08/26 04:03:49;;;;;;;;;1.25;1.25;;;;;23.50;43.56;101469.63;5089393;27;51797;-59
2021/08/26 04:06:14;;;;;;;;;2.75;1.75;;;;;23.50;43.64;101469.63;5079424;27;51640;-59
2021/08/26 04:08:40;;;;;;;;;2.75;2.00;;;;;23.48;43.20;101480.06;5082048;27;51133;-60
2021/08/26 04:11:06;;;;;;;;;4.50;3.75;;;;;23.47;43.32;101481.16;5089106;27;51103;-59
2021/08/26 04:13:31;;;;;;;;;2.00;1.00;;;;;23.47;43.55;101481.16;5096535;27;52255;-59
2021/08/26 04:15:57;;;;;;;;;2.00;2.00;;;;;23.46;43.15;101485.00;5083949;27;51137;-59
2021/08/26 04:18:22;;;;;;;;;1.00;1.00;;;;;23.46;43.82;101487.75;5078578;27;51229;-59
2021/08/26 04:20:47;;;;;;;;;1.75;1.75;;;;;23.46;43.54;101496.06;5080536;27;51291;-59
2021/08/26 04:23:13;;;;;;;;;2.25;1.00;;;;;23.45;43.32;101485.22;5081101;27;52080;-59
2021/08/26 04:25:38;;;;;;;;;3.75;3.00;;;;;23.44;43.44;101484.34;5080496;27;51058;-59
2021/08/26 04:28:05;;;;;;;;;1.50;1.50;;;;;23.43;43.20;101487.34;5080839;27;50981;-58
2021/08/26 04:30:30;;;;;;;;;1.75;1.00;;;;;23.41;43.54;101481.22;5080008;27;50964;-58
2021/08/26 04:32:55;;;;;;;;;1.00;1.00;;;;;23.40;43.70;101477.59;5078623;27;51096;-59
2021/08/26 04:35:21;;;;;;;;;3.25;2.00;;;;;23.39;43.26;101475.91;5097866;27;51108;-58
2021/08/26 04:37:46;;;;;;;;;3.00;2.00;;;;;23.38;43.26;101471.47;5094161;27;50992;-58
2021/08/26 04:40:12;;;;;;;;;1.50;1.00;;;;;23.37;43.87;101468.91;5081122;27;51017;-59
2021/08/26 04:42:37;;;;;;;;;1.00;1.00;;;;;23.37;43.16;101474.44;5094016;27;52137;-59
2021/08/26 04:45:04;;;;;;;;;1.00;1.00;;;;;23.35;43.53;101466.38;5080397;27;51005;-58
2021/08/26 04:47:29;;;;;;;;;1.00;1.00;;;;;23.33;43.78;101466.59;5078634;27;51050;-59
2021/08/26 04:49:54;;;;;;;;;1.75;1.75;;;;;23.34;43.68;101464.66;5093414;27;51199;-59
2021/08/26 04:52:20;;;;;;;;;3.50;1.50;;;;;23.32;43.62;101467.66;5081024;27;51715;-58
2021/08/26 04:54:45;;;;;;;;;2.00;2.00;;;;;23.32;43.24;101469.59;5084606;27;51201;-59
2021/08/26 04:57:10;;;;;;;;;2.00;2.00;;;;;23.30;43.12;101472.56;5089009;27;51057;-58
2021/08/26 04:59:36;;;;;;;;;1.75;0.25;;;;;23.30;43.69;101467.06;5084532;27;51249;-59
2021/08/26 05:02:01;;;;;;;;;3.00;3.00;;;;;23.31;43.58;101470.66;5090793;27;52763;-58
2021/08/26 05:04:27;;;;;;;;;2.75;1.00;;;;;23.30;43.91;101471.72;5089793;27;51194;-59
2021/08/26 05:06:53;;;;;;;;;3.00;1.00;;;;;23.29;43.63;101479.19;5097641;27;51194;-59
2021/08/26 05:09:19;;;;;;;;;2.25;2.25;;;;;23.29;44.01;101479.19;5096857;27;51150;-59
2021/08/26 05:11:45;;;;;;;;;0.75;0.75;;;;;23.28;43.42;101476.66;5098106;27;51884;-58
2021/08/26 05:14:11;;;;;;;;;2.25;2.00;;;;;23.28;43.72;101477.50;5092526;27;51033;-59
2021/08/26 05:16:36;;;;;;;;;1.00;1.00;;;;;23.27;43.46;101474.97;5096861;27;51173;-58
2021/08/26 05:19:01;;;;;;;;;1.50;1.00;;;;;23.27;43.93;101464.75;5097624;27;51412;-58
2021/08/26 05:21:27;;;;;;;;;1.75;1.00;;;;;23.26;43.95;101473.28;5097790;27;52295;-58
2021/08/26 05:23:52;;;;;;;;;2.00;2.00;;;;;23.25;43.49;101466.91;5090554;27;51247;-58
2021/08/26 05:26:17;;;;;;;;;2.00;2.00;;;;;23.26;43.81;101476.03;5081036;27;51134;-58
2021/08/26 05:28:43;;;;;;;;;3.00;1.00;;;;;23.25;44.17;101477.94;5080897;27;51136;-58
2021/08/26 05:31:09;;;;;;;;;0.25;0.25;;;;;23.25;43.76;101477.09;5094627;27;51161;-60
2021/08/26 05:33:34;;;;;;;;;1.50;1.50;;;;;23.25;44.11;101479.88;5085173;27;51393;-60
2021/08/26 05:36:00;;;;;;;;;0.00;0.00;;;;;23.23;43.83;101485.59;5091844;27;51145;-58
2021/08/26 05:38:25;;;;;;;;;1.00;1.00;;;;;23.22;43.89;101485.81;5097336;27;51286;-59
2021/08/26 05:40:50;;;;;;;;;2.00;2.00;;;;;23.21;44.53;101476.69;5093374;27;51177;-59
2021/08/26 05:43:16;;;;;;;;;2.25;2.25;;;;;23.20;44.03;101479.69;5093159;27;56506;-59
2021/08/26 05:45:41;;;;;;;;;2.50;1.00;;;;;23.19;44.15;101478.84;5089051;27;51191;-60
2021/08/26 05:48:07;;;;;;;;;2.00;2.00;;;;;23.19;44.35;101478.00;5093879;27;51209;-60
2021/08/26 05:50:32;;;;;;;;;2.00;1.50;;;;;23.18;44.66;101476.31;5086746;27;52560;-60
2021/08/26 05:52:57;;;;;;;;;1.00;1.00;;;;;23.17;44.24;101469.09;5081541;27;51154;-58
2021/08/26 05:55:23;;;;;;;;;1.25;1.00;;;;;23.15;44.52;101466.56;5083502;27;51708;-59
2021/08/26 05:57:48;;;;;;;;;2.50;1.00;;;;;23.15;47.51;101472.09;5078061;27;51081;-60
2021/08/26 06:00:14;;;;;;;;;3.00;2.00;;;;;23.18;50.32;101474.38;5090479;27;51773;-60
2021/08/26 06:02:40;;;;;;;;;4.25;1.25;;;;;23.23;48.36;101473.69;5086344;27;51053;-60
2021/08/26 06:05:05;;;;;;;;;1.25;1.00;;;;;23.26;47.40;101467.75;5085005;27;51337;-60
2021/08/26 06:07:31;;;;;;;;;2.00;2.00;;;;;23.28;48.13;101476.66;5091124;27;51210;-60
2021/08/26 06:09:56;;;;;;;;;2.50;2.00;;;;;23.30;47.09;101464.28;5088915;27;52026;-60
2021/08/26 06:12:22;;;;;;;;;2.50;2.50;;;;;23.31;46.96;101465.97;5091623;27;51034;-62
2021/08/26 06:14:47;;;;;;;;;5.00;2.50;;;;;23.34;47.44;101472.97;5082785;27;51173;-60
2021/08/26 06:17:12;;;;;;;;;2.25;1.00;;;;;23.34;47.26;101464.66;5096802;27;51162;-60
2021/08/26 06:19:38;;;;;;;;;4.00;2.00;;;;;23.37;46.38;101482.75;5094877;27;51999;-60
2021/08/26 06:22:03;;;;;;;;;2.75;2.00;;;;;23.38;46.64;101482.50;5094353;27;51308;-62
2021/08/26 06:24:28;;;;;;;;;3.00;3.00;;;;;23.40;47.21;101485.88;5091540;27;51222;-61
2021/08/26 06:26:58;;;;;;;;;1.75;1.75;;;;;23.39;47.31;101478.66;5084175;27;51634;-61
2021/08/26 06:29:24;;;;;;;;;3.25;1.75;;;;;23.42;47.13;101478.22;5086591;27;51970;-64
2021/08/26 06:31:49;;;;;;;;;3.50;1.75;;;;;23.44;46.95;101478.81;5085175;27;51369;-61
2021/08/26 06:34:14;;;;;;;;;3.25;2.75;;;;;23.44;46.73;101484.34;5092115;27;51145;-60
2021/08/26 06:36:40;;;;;;;;;1.00;1.00;;;;;23.45;46.51;101486.06;5091255;27;51728;-60
2021/08/26 06:39:05;;;;;;;;;3.50;2.00;;;;;23.46;46.13;101479.47;5088625;27;51138;-62
2021/08/26 06:41:30;;;;;;;;;4.75;4.00;;;;;23.46;46.05;101482.22;5096505;27;51130;-61
2021/08/26 06:43:56;;;;;;;;;2.25;2.25;;;;;23.48;46.45;101485.59;5088879;27;51879;-61
2021/08/26 06:46:21;;;;;;;;;3.00;2.00;;;;;23.48;46.29;101482.00;5094685;27;51232;-59
2021/08/26 06:48:47;;;;;;;;;3.00;3.00;;;;;23.48;46.10;101474.56;5091238;27;51701;-64
2021/08/26 06:51:13;;;;;;;;;2.00;2.00;;;;;23.49;45.90;101476.25;5094356;27;51111;-61
2021/08/26 06:53:38;;;;;;;;;1.25;1.25;;;;;23.50;46.09;101477.09;5096658;27;51268;-61
2021/08/26 06:56:04;;;;;;;;;2.50;2.00;;;;;23.51;45.42;101482.38;5096338;27;51009;-61
2021/08/26 06:58:29;;;;;;;;;3.25;3.00;;;;;23.51;45.71;101482.38;5095995;27;51090;-60
2021/08/26 07:00:54;;;;;;;;;5.25;2.00;;;;;23.50;45.88;101475.16;5095820;27;51091;-61
2021/08/26 07:03:20;;;;;;;;;2.50;2.00;;;;;23.50;45.72;101474.31;5096150;27;51085;-60
2021/08/26 07:05:45;;;;;;;;;1.00;1.00;;;;;23.51;45.42;101473.25;5096831;27;51149;-60
2021/08/26 07:08:10;;;;;;;;;1.00;1.00;;;;;23.51;45.47;101479.63;5096148;27;60265;-60
2021/08/26 07:10:36;;;;;;;;;1.00;1.00;;;;;23.51;45.46;101476.00;5094908;27;51339;-60
2021/08/26 07:13:01;;;;;;;;;2.25;2.25;;;;;23.51;45.32;101474.09;5096864;27;51064;-60
2021/08/26 07:15:26;;;;;;;;;2.00;2.00;;;;;23.51;45.11;101479.63;5096437;27;50940;-61
2021/08/26 07:17:53;;;;;;;;;3.00;1.50;;;;;23.51;45.27;101476.84;5096024;27;51814;-61
2021/08/26 07:20:18;;;;;;;;;2.00;2.00;;;;;23.52;45.25;101473.00;5096618;27;51297;-60
2021/08/26 07:22:43;;;;;;;;;2.00;2.00;;;;;23.52;45.17;101472.16;5096333;27;50938;-60
2021/08/26 07:25:10;;;;;;;;;2.75;2.75;;;;;23.52;45.64;101473.00;5096748;27;50973;-60
2021/08/26 07:27:35;;;;;;;;;2.50;2.00;;;;;23.51;45.24;101465.78;5095646;27;51999;-60
2021/08/26 07:30:01;;;;;;;;;2.00;2.00;;;;;23.52;45.15;101473.00;5094980;27;51068;-60
2021/08/26 07:32:26;;;;;;;;;2.50;2.50;;;;;23.51;45.19;101468.56;5096309;27;51060;-60
2021/08/26 07:34:51;;;;;;;;;1.00;1.00;;;;;23.52;45.38;101464.72;5096441;27;50925;-60
2021/08/26 07:37:17;;;;;;;;;2.25;1.25;;;;;23.53;45.63;101463.63;5095828;27;50961;-60
2021/08/26 07:39:44;;;;;;;;;3.50;2.25;;;;;23.52;45.15;101463.88;5096239;27;51073;-60
2021/08/26 07:42:09;;;;;;;;;5.00;2.00;;;;;23.53;45.45;101471.94;5096245;27;51101;-61
2021/08/26 07:44:35;;;;;;;;;3.00;3.00;;;;;23.53;45.06;101466.41;5096112;27;51005;-60
2021/08/26 07:47:00;;;;;;;;;2.50;2.50;;;;;23.53;45.36;101473.84;5077560;27;51878;-60
2021/08/26 07:49:25;;;;;;;;;3.25;2.00;;;;;23.53;45.04;101468.31;5095690;27;51032;-60
2021/08/26 07:51:50;;;;;;;;;2.50;2.00;;;;;23.52;45.12;101463.88;5096255;27;51016;-60
2021/08/26 07:54:16;;;;;;;;;3.75;3.50;;;;;23.54;45.20;101470.00;5096018;27;51144;-61
2021/08/26 07:56:42;;;;;;;;;3.50;3.25;;;;;23.54;45.32;101475.53;5095593;27;51751;-60
2021/08/26 07:59:07;;;;;;;;;3.00;2.00;;;;;23.54;45.42;101470.84;5095623;27;51066;-60
2021/08/26 08:01:32;;;;;;;;;2.75;2.75;;;;;23.54;45.39;101472.78;5096013;27;51352;-60
2021/08/26 08:03:58;;;;;;;;;6.00;4.25;;;;;23.53;45.16;101477.47;5077578;27;51199;-60
2021/08/26 08:06:24;;;;;;;;;7.00;4.00;;;;;23.54;45.31;101470.84;5075221;28;51700;-60
2021/08/26 08:08:49;;;;;;;;;4.00;3.00;;;;;23.55;45.43;101472.56;5075346;28;51095;-61
2021/08/26 08:11:15;;;;;;;;;2.75;1.00;;;;;23.56;45.42;101467.88;5075436;28;50914;-61
2021/08/26 08:13:41;;;;;;;;;2.25;2.25;;;;;23.54;45.42;101470.00;5075600;28;51291;-61
2021/08/26 08:16:06;;;;;;;;;3.75;3.75;;;;;23.55;45.74;101474.47;5075201;28;51469;-60
2021/08/26 08:18:32;;;;;;;;;3.00;3.00;;;;;23.55;45.12;101475.34;5075111;27;51093;-60
2021/08/26 08:20:57;;;;;;;;;4.75;2.75;;;;;23.55;45.36;101474.47;5075377;28;51099;-61
2021/08/26 08:23:23;;;;;;;;;3.25;3.25;;;;;23.55;45.22;101467.03;5075555;28;51078;-61
2021/08/26 08:25:48;;;;;;;;;3.00;3.00;;;;;23.55;45.38;101468.94;5074847;28;51777;-61
2021/08/26 08:28:15;;;;;;;;;7.50;3.00;;;;;23.55;45.35;101477.22;5075002;27;57320;-60
2021/08/26 08:30:42;;;;;;;;;2.00;2.00;;;;;23.55;45.50;101472.56;5075197;28;51092;-61
2021/08/26 08:33:08;;;;;;;;;3.00;2.00;;;;;23.55;45.45;101478.09;5075469;28;51129;-60
2021/08/26 08:35:34;;;;;;;;;2.75;2.75;;;;;23.54;45.47;101468.09;5074907;28;52185;-60
2021/08/26 08:37:59;;;;;;;;;5.75;3.75;;;;;23.55;45.23;101468.94;5075528;27;50965;-60
2021/08/26 08:40:25;;;;;;;;;3.00;3.00;;;;;23.55;45.13;101467.03;5078777;28;51166;-60
2021/08/26 08:42:52;;;;;;;;;5.00;4.00;;;;;23.55;45.54;101472.56;5078592;28;51328;-61
2021/08/26 08:45:17;;;;;;;;;6.25;3.50;;;;;23.55;45.49;101472.56;5078125;28;51131;-60
2021/08/26 08:47:45;;;;;;;;;3.50;3.25;;;;;23.55;45.89;101478.09;5078434;28;51061;-61
2021/08/26 08:50:11;;;;;;;;;4.00;4.00;;;;;23.56;45.83;101473.41;5078542;28;50950;-60
2021/08/26 08:52:40;;;;;;;;;3.00;3.00;;;;;23.55;45.75;101478.09;5078754;28;51174;-61
2021/08/26 08:55:09;;;;;;;;;3.00;3.00;;;;;23.55;45.49;101472.56;5078084;28;51004;-61
2021/08/26 08:57:36;;;;;;;;;7.00;5.25;;;;;23.56;45.37;101467.88;5078150;28;50978;-60
2021/08/26 09:00:05;;;;;;;;;7.50;7.50;;;;;23.56;45.31;101471.50;5077915;27;51003;-60
2021/08/26 09:02:31;;;;;;;;;4.50;4.25;;;;;23.56;45.84;101468.72;5083966;27;51060;-61
2021/08/26 09:04:58;;;;;;;;;5.75;4.25;;;;;23.57;45.42;101466.81;5098317;27;51835;-60
2021/08/26 09:07:31;;;;;;;;;4.00;4.00;;;;;23.57;45.71;101467.66;5098292;27;51347;-61
2021/08/26 09:09:58;;;;;;;;;4.25;3.25;;;;;23.58;45.70;101472.16;5098649;27;51180;-60
2021/08/26 09:12:42;;;;;;;;;5.00;3.75;;;;;23.57;45.70;101473.19;5098716;27;51333;-60
2021/08/26 09:15:29;;;;;;;;;4.50;4.00;;;;;23.56;45.95;101474.25;5098276;27;51068;-60
2021/08/26 09:18:18;;;;;;;;;7.00;4.00;;;;;23.59;45.87;101470.22;5098184;27;51559;-60
2021/08/26 09:20:52;;;;;;;;;4.50;2.75;;;;;23.58;45.71;101468.50;5098678;27;51429;-60
2021/08/26 09:23:19;;;;;;;;;3.50;3.50;;;;;23.58;45.97;101466.63;5098529;27;51317;-60
2021/08/26 09:25:44;;;;;;;;;4.00;4.00;;;;;23.58;46.01;101474.91;5098264;27;51016;-60
2021/08/26 09:28:31;;;;;;;;;4.75;4.00;;;;;23.57;45.71;101475.94;5078069;27;51043;-60
2021/08/26 09:31:15;;;;;;;;;5.00;4.00;;;;;23.58;46.00;101477.69;5077680;28;51126;-60
2021/08/26 09:33:49;;;;;;;;;3.50;1.00;;;;;23.59;46.33;101473.84;5077721;28;51386;-60
2021/08/26 09:36:19;;;;;;;;;4.00;3.50;;;;;23.60;46.58;101475.53;5077279;28;51921;-60
2021/08/26 09:38:53;;;;;;;;;5.00;3.75;;;;;23.58;46.39;101472.16;5077404;27;51131;-60
2021/08/26 09:41:41;;;;;;;;;2.00;2.00;;;;;23.59;46.03;101470.22;5077475;28;51230;-60
2021/08/26 09:44:10;;;;;;;;;2.00;2.00;;;;;23.59;46.79;101465.53;5077404;28;51163;-60
2021/08/26 09:46:36;;;;;;;;;5.25;3.00;;;;;23.60;46.43;101458.94;5076778;28;52002;-60
2021/08/26 09:49:10;;;;;;;;;3.75;3.25;;;;;23.60;46.11;101467.22;5076783;27;51367;-59
2021/08/26 09:51:38;;;;;;;;;5.25;3.75;;;;;23.61;46.44;101471.69;5076852;28;51074;-60
2021/08/26 09:54:04;;;;;;;;;5.75;3.50;;;;;23.61;46.72;101462.53;5077732;28;50982;-60
2021/08/26 09:56:44;;;;;;;;;3.25;3.00;;;;;23.61;46.55;101462.53;5077206;28;51983;-60
2021/08/26 09:59:09;;;;;;;;;3.50;3.00;;;;;23.61;46.83;101457.00;5077025;28;51364;-60
2021/08/26 10:01:37;;;;;;;;;2.25;2.25;;;;;23.60;46.64;101461.69;5077331;28;50962;-60
2021/08/26 10:04:02;;;;;;;;;3.25;3.25;;;;;23.61;46.86;101460.63;5077167;28;51134;-61
2021/08/26 10:06:28;;;;;;;;;3.00;3.00;;;;;23.61;46.85;101459.78;5077451;28;50938;-60
2021/08/26 10:08:54;;;;;;;;;2.50;2.50;;;;;23.62;46.88;101461.47;5077133;27;52340;-60
2021/08/26 10:11:20;;;;;;;;;3.75;3.00;;;;;23.62;46.35;101455.94;5076952;28;51104;-61
2021/08/26 10:13:48;;;;;;;;;3.00;3.00;;;;;23.63;46.56;101457.63;5076798;28;51342;-61
2021/08/26 10:16:14;;;;;;;;;2.25;2.25;;;;;23.63;46.81;101452.09;5076701;28;51079;-61
2021/08/26 10:18:40;;;;;;;;;3.50;3.00;;;;;23.63;46.66;101451.25;5076384;27;51380;-60
2021/08/26 10:21:08;;;;;;;;;3.00;3.00;;;;;23.63;46.44;101449.31;5077153;28;51194;-61
2021/08/26 10:23:38;;;;;;;;;3.75;3.75;;;;;23.64;46.84;101442.72;5077104;28;51260;-61
2021/08/26 10:26:07;;;;;;;;;1.75;1.75;;;;;23.64;46.79;101445.47;5074477;28;51959;-60
2021/08/26 10:28:40;;;;;;;;;4.00;3.00;;;;;23.65;47.14;101440.78;5072659;27;51195;-61
2021/08/26 10:31:29;;;;;;;;;3.00;2.00;;;;;23.65;47.08;101438.03;5076503;28;51026;-60
2021/08/26 10:34:21;;;;;;;;;3.75;3.25;;;;;23.66;47.05;101436.97;5057814;28;51375;-61
2021/08/26 10:37:16;;;;;;;;;3.75;2.75;;;;;23.67;47.05;101441.44;5076110;28;51889;-63
2021/08/26 10:39:42;;;;;;;;;2.00;2.00;;;;;23.66;47.18;101436.97;5076025;27;51061;-61
2021/08/26 10:42:40;;;;;;;;;3.00;3.00;;;;;23.67;47.14;101445.03;5091267;27;51105;-60
2021/08/26 10:45:09;;;;;;;;;3.00;2.00;;;;;23.68;47.09;101448.66;5096526;27;50992;-60
2021/08/26 10:47:50;;;;;;;;;3.00;2.00;;;;;23.68;46.45;101445.88;5096087;27;51350;-61
2021/08/26 10:50:35;;;;;;;;;3.50;3.00;;;;;23.69;46.56;101447.56;5096564;27;51043;-60
2021/08/26 10:53:05;;;;;;;;;2.75;2.75;;;;;23.68;46.90;101441.19;5096615;27;51064;-61
2021/08/26 10:55:43;;;;;;;;;4.00;2.00;;;;;23.69;47.16;101444.81;5096573;27;51148;-61
2021/08/26 10:58:23;;;;;;;;;2.75;2.00;;;;;23.70;46.82;101463.09;5095740;27;52080;-60
2021/08/26 11:00:49;;;;;;;;;4.75;3.00;;;;;23.69;47.35;101464.16;5096210;27;51060;-59
2021/08/26 11:03:33;;;;;;;;;1.75;1.75;;;;;23.69;46.86;101461.41;5088554;27;51126;-60
2021/08/26 11:06:24;;;;;;;;;0.75;0.75;;;;;23.70;46.87;101475.00;5076182;28;50998;-61
2021/08/26 11:08:52;;;;;;;;;1.00;1.00;;;;;23.69;47.18;101466.94;5075535;27;51096;-60
2021/08/26 11:11:27;;;;;;;;;2.75;2.75;;;;;23.70;47.55;101476.91;5075714;28;51328;-60
2021/08/26 11:14:07;;;;;;;;;3.00;3.00;;;;;23.70;47.09;101474.16;5075476;28;51251;-61
2021/08/26 11:16:37;;;;;;;;;1.00;1.00;;;;;23.70;47.54;101471.38;5075782;28;51234;-61
2021/08/26 11:19:05;;;;;;;;;2.25;1.25;;;;;23.70;47.45;101471.38;5074850;28;51098;-60
2021/08/26 11:21:43;;;;;;;;;1.00;1.00;;;;;23.70;47.45;101463.94;5075568;28;51063;-60
2021/08/26 11:24:12;;;;;;;;;6.00;4.25;;;;;23.71;47.47;101473.91;5075022;28;51277;-60
2021/08/26 11:27:17;;;;;;;;;2.50;2.00;;;;;23.70;47.07;101457.56;5053345;28;51014;-61
2021/08/26 11:29:43;;;;;;;;;2.75;2.75;;;;;23.71;47.63;101465.63;5060831;27;51114;-63